Time;durP1;ratioP1;P1;durP2;ratioP2;P2;SDS_P1;SDS_P2;PMS_P1;PMS_P2;Temp;Humidity;BMP_temperature;BMP_pressure;BME280_temperature;BME280_humidity;BME280_pressure;Samples;Min_cycle;Max_cycle;Signal;HPM_P1;HPM_P2
2023/07/02 00:01:48;;;;;;;3.60;1.30;;;18.00;1.00;;;;;;5052984;28;20044;-76
2023/07/02 00:04:20;;;;;;;3.90;1.15;;;18.00;1.00;;;;;;5046541;28;20040;-75
2023/07/02 00:06:47;;;;;;;5.00;1.10;;;18.00;1.00;;;;;;5030281;28;20037;-77
2023/07/02 00:09:14;;;;;;;3.72;1.60;;;18.00;1.00;;;;;;5023119;28;20094;-78
2023/07/02 00:11:43;;;;;;;2.97;1.10;;;18.00;1.00;;;;;;5044826;28;20037;-77
2023/07/02 00:14:10;;;;;;;3.42;0.90;;;18.00;1.00;;;;;;5045938;28;20096;-76
2023/07/02 00:16:38;;;;;;;3.15;0.95;;;18.00;1.00;;;;;;5045229;28;20033;-79
2023/07/02 00:19:04;;;;;;;1.88;1.00;;;18.10;1.00;;;;;;5045957;28;20037;-76
2023/07/02 00:21:33;;;;;;;3.70;1.13;;;18.10;1.00;;;;;;5027892;28;20077;-77
2023/07/02 00:24:00;;;;;;;3.42;1.33;;;18.10;1.00;;;;;;5044696;28;20025;-76
2023/07/02 00:26:27;;;;;;;2.13;1.10;;;18.10;1.00;;;;;;5040286;28;20467;-78
2023/07/02 00:28:55;;;;;;;3.22;1.05;;;18.10;1.00;;;;;;5034787;28;20041;-77
2023/07/02 00:31:21;;;;;;;4.38;1.52;;;18.10;1.00;;;;;;5032598;28;20045;-77
2023/07/02 00:33:48;;;;;;;5.18;1.23;;;18.20;1.00;;;;;;5047247;28;20400;-78
2023/07/02 00:36:14;;;;;;;3.42;1.10;;;18.10;1.00;;;;;;5047382;28;20041;-78
2023/07/02 00:38:42;;;;;;;3.60;1.00;;;18.10;1.00;;;;;;5045431;28;20051;-76
2023/07/02 00:41:09;;;;;;;2.85;1.00;;;18.10;1.00;;;;;;5037567;28;20052;-76
2023/07/02 00:43:35;;;;;;;3.65;1.20;;;18.10;1.00;;;;;;5044778;28;20029;-77
2023/07/02 00:46:02;;;;;;;3.28;1.30;;;18.10;1.00;;;;;;5044372;28;20036;-76
2023/07/02 00:48:29;;;;;;;3.63;1.45;;;18.00;1.00;;;;;;5046962;28;20041;-76
2023/07/02 00:50:56;;;;;;;3.53;1.40;;;17.90;1.00;;;;;;5028973;28;20049;-77
2023/07/02 00:53:22;;;;;;;3.55;1.48;;;17.90;1.00;;;;;;5045143;28;20041;-76
2023/07/02 00:55:48;;;;;;;3.42;1.40;;;17.80;1.00;;;;;;5037048;28;20037;-77
2023/07/02 00:58:15;;;;;;;2.20;1.30;;;17.80;1.00;;;;;;5044369;28;20034;-76
2023/07/02 01:00:43;;;;;;;2.83;1.45;;;17.70;1.00;;;;;;4927042;28;20479;-76
2023/07/02 01:03:11;;;;;;;2.25;0.98;;;17.70;1.00;;;;;;4991405;28;20052;-76
2023/07/02 01:05:37;;;;;;;3.50;1.70;;;17.60;1.00;;;;;;4925126;29;20048;-81
2023/07/02 01:08:07;;;;;;;3.10;1.20;;;17.60;1.00;;;;;;4925979;28;20483;-77
2023/07/02 01:10:35;;;;;;;3.28;1.27;;;17.60;1.00;;;;;;4924594;29;20043;-77
2023/07/02 01:13:10;;;;;;;7.25;1.83;;;17.50;1.00;;;;;;4925550;29;20476;-77
2023/07/02 01:15:37;;;;;;;4.82;1.38;;;17.50;1.00;;;;;;4990448;28;20043;-76
2023/07/02 01:18:05;;;;;;;2.97;1.17;;;17.50;1.00;;;;;;4993414;28;20410;-77
2023/07/02 01:20:34;;;;;;;4.95;1.88;;;17.50;1.00;;;;;;4988003;28;20384;-76
2023/07/02 01:23:03;;;;;;;4.90;2.17;;;17.50;1.00;;;;;;4926311;29;20034;-76
2023/07/02 01:25:29;;;;;;;4.72;1.13;;;17.50;1.00;;;;;;4992513;28;20059;-76
2023/07/02 01:27:58;;;;;;;4.50;1.17;;;17.60;1.00;;;;;;4925375;28;20039;-76
2023/07/02 01:30:25;;;;;;;2.00;1.15;;;17.60;1.00;;;;;;4992566;28;20047;-75
2023/07/02 01:32:52;;;;;;;3.47;1.67;;;17.50;1.00;;;;;;4928494;28;20047;-76
2023/07/02 01:35:18;;;;;;;3.40;1.52;;;17.50;1.00;;;;;;4926882;29;20040;-76
2023/07/02 01:37:44;;;;;;;2.38;1.20;;;17.50;1.00;;;;;;4928421;28;20075;-76
2023/07/02 01:40:12;;;;;;;6.50;2.83;;;17.50;1.00;;;;;;4983259;28;20544;-76
2023/07/02 01:42:39;;;;;;;1.65;0.88;;;17.50;1.00;;;;;;4990638;28;20044;-76
2023/07/02 01:45:06;;;;;;;4.93;1.45;;;17.40;1.00;;;;;;4928729;29;20100;-76
2023/07/02 01:47:32;;;;;;;6.07;1.63;;;17.40;1.00;;;;;;4995976;28;20050;-76
2023/07/02 01:49:58;;;;;;;2.17;0.98;;;17.40;1.00;;;;;;4996197;28;20040;-76
2023/07/02 01:52:25;;;;;;;3.63;1.77;;;17.40;1.00;;;;;;4993251;28;20063;-77
2023/07/02 01:54:52;;;;;;;5.97;1.42;;;17.40;1.00;;;;;;4929932;28;20402;-78
2023/07/02 01:57:18;;;;;;;5.10;2.03;;;17.40;1.00;;;;;;4977631;28;20044;-77
2023/07/02 01:59:44;;;;;;;2.70;1.45;;;17.40;1.00;;;;;;4994750;28;20049;-78
2023/07/02 02:02:11;;;;;;;8.02;2.20;;;17.40;1.00;;;;;;5031251;28;20029;-76
2023/07/02 02:04:37;;;;;;;4.65;2.40;;;17.30;1.00;;;;;;5015559;28;20033;-76
2023/07/02 02:07:03;;;;;;;3.97;2.05;;;17.30;1.00;;;;;;5031815;28;20621;-75
2023/07/02 02:09:32;;;;;;;5.82;3.15;;;17.40;1.00;;;;;;5029858;28;20045;-77
2023/07/02 02:11:58;;;;;;;11.30;3.08;;;17.30;1.00;;;;;;5029207;28;20392;-76
2023/07/02 02:14:24;;;;;;;7.05;3.60;;;17.40;1.00;;;;;;5030816;28;20036;-76
2023/07/02 02:16:52;;;;;;;11.20;3.42;;;17.40;1.00;;;;;;5025736;28;20026;-77
2023/07/02 02:19:19;;;;;;;5.28;2.17;;;17.30;1.00;;;;;;5044927;28;20052;-77
2023/07/02 02:21:45;;;;;;;5.63;1.90;;;17.30;1.00;;;;;;5042464;28;20045;-79
2023/07/02 02:24:13;;;;;;;4.78;2.15;;;17.20;1.00;;;;;;5013724;28;20046;-76
2023/07/02 02:26:39;;;;;;;4.15;2.70;;;17.20;1.00;;;;;;5026691;28;20488;-76
2023/07/02 02:29:05;;;;;;;5.50;2.10;;;17.20;1.00;;;;;;5026321;28;20041;-76
2023/07/02 02:31:32;;;;;;;8.20;2.80;;;17.10;1.00;;;;;;5014123;28;20503;-76
2023/07/02 02:33:59;;;;;;;2.75;2.03;;;17.10;1.00;;;;;;5023418;28;20033;-77
2023/07/02 02:36:26;;;;;;;4.43;2.30;;;17.10;1.00;;;;;;5011450;28;20064;-76
2023/07/02 02:38:52;;;;;;;4.90;2.67;;;17.10;1.00;;;;;;5027638;28;20483;-76
2023/07/02 02:41:19;;;;;;;8.43;3.13;;;17.10;1.00;;;;;;5028444;28;20493;-77
2023/07/02 02:43:49;;;;;;;9.15;4.18;;;17.10;1.00;;;;;;5040966;28;20041;-77
2023/07/02 02:46:22;;;;;;;10.38;4.95;;;17.10;1.00;;;;;;5026258;28;20042;-76
2023/07/02 02:48:49;;;;;;;8.68;4.35;;;17.20;99.90;;;;;;5012835;28;20045;-78
2023/07/02 02:51:15;;;;;;;6.13;3.53;;;17.20;99.90;;;;;;5015078;28;20033;-76
2023/07/02 02:53:41;;;;;;;8.10;4.45;;;17.20;99.90;;;;;;5028372;28;20030;-76
2023/07/02 02:56:08;;;;;;;7.70;3.90;;;17.20;99.90;;;;;;5002212;28;20050;-75
2023/07/02 02:58:34;;;;;;;11.35;3.90;;;17.20;99.90;;;;;;5031641;28;20037;-75
2023/07/02 03:01:00;;;;;;;9.90;4.10;;;17.10;99.90;;;;;;5062522;28;20404;-76
2023/07/02 03:03:27;;;;;;;9.45;4.80;;;17.10;99.90;;;;;;5064588;28;20041;-74
2023/07/02 03:05:53;;;;;;;8.13;3.95;;;17.00;99.90;;;;;;5061951;28;20425;-78
2023/07/02 03:08:19;;;;;;;8.75;3.92;;;17.00;99.90;;;;;;5063987;28;20041;-75
2023/07/02 03:10:45;;;;;;;8.75;4.15;;;17.00;99.90;;;;;;5046506;28;20029;-77
2023/07/02 03:13:11;;;;;;;9.02;4.03;;;17.00;99.90;;;;;;5048442;28;20032;-75
2023/07/02 03:15:38;;;;;;;10.18;3.95;;;17.00;99.90;;;;;;5047280;28;20109;-74
2023/07/02 03:18:04;;;;;;;7.60;4.03;;;17.10;99.90;;;;;;5047066;28;20036;-76
2023/07/02 03:20:30;;;;;;;7.43;4.25;;;17.10;99.90;;;;;;5049957;28;20040;-77
2023/07/02 03:22:56;;;;;;;7.50;4.28;;;17.10;99.90;;;;;;5045783;28;20384;-75
2023/07/02 03:25:23;;;;;;;8.27;4.07;;;17.10;99.90;;;;;;5048234;28;20064;-76
2023/07/02 03:27:52;;;;;;;11.55;4.78;;;17.10;99.90;;;;;;5037511;28;20044;-75
2023/07/02 03:30:18;;;;;;;9.48;3.92;;;17.10;99.90;;;;;;5049136;28;20356;-77
2023/07/02 03:32:44;;;;;;;11.93;4.47;;;17.10;99.90;;;;;;5062957;28;20030;-79
2023/07/02 03:35:10;;;;;;;6.70;4.05;;;17.10;99.90;;;;;;5031290;28;20037;-76
2023/07/02 03:37:36;;;;;;;9.25;4.57;;;17.00;99.90;;;;;;5044532;28;20049;-76
2023/07/02 03:40:03;;;;;;;9.90;4.38;;;17.00;99.90;;;;;;5047611;28;20037;-76
2023/07/02 03:42:30;;;;;;;8.32;4.50;;;17.00;99.90;;;;;;5047324;28;20048;-77
2023/07/02 03:44:56;;;;;;;9.80;4.25;;;17.00;99.90;;;;;;5066918;28;20036;-78
2023/07/02 03:47:22;;;;;;;8.00;4.25;;;17.00;99.90;;;;;;5030724;28;20037;-77
2023/07/02 03:49:49;;;;;;;10.30;4.40;;;17.00;99.90;;;;;;5046361;28;20128;-79
2023/07/02 03:52:15;;;;;;;9.52;4.57;;;17.00;99.90;;;;;;5046313;28;20033;-76
2023/07/02 03:54:41;;;;;;;8.68;4.80;;;17.00;99.90;;;;;;5044199;28;20037;-75
2023/07/02 03:57:07;;;;;;;9.05;4.63;;;17.00;99.90;;;;;;5046073;28;20025;-76
2023/07/02 03:59:34;;;;;;;8.45;4.68;;;16.90;99.90;;;;;;5044347;28;20053;-77
2023/07/02 04:02:00;;;;;;;11.98;4.63;;;16.90;99.90;;;;;;5061003;28;20033;-76
2023/07/02 04:04:27;;;;;;;8.55;4.35;;;16.90;99.90;;;;;;5043570;28;20345;-75
2023/07/02 04:06:54;;;;;;;8.15;4.40;;;16.90;99.90;;;;;;5045161;28;20570;-75
2023/07/02 04:09:21;;;;;;;7.35;3.95;;;16.80;1.00;;;;;;5028123;28;20056;-76
2023/07/02 04:11:47;;;;;;;8.85;4.53;;;16.90;99.90;;;;;;5045651;28;20037;-78
2023/07/02 04:14:13;;;;;;;9.23;4.82;;;16.90;1.00;;;;;;5043895;28;20037;-75
2023/07/02 04:16:39;;;;;;;8.45;4.20;;;16.90;99.90;;;;;;5042582;28;20037;-75
2023/07/02 04:19:05;;;;;;;8.75;4.38;;;16.90;1.00;;;;;;5043439;28;20478;-74
2023/07/02 04:21:31;;;;;;;11.45;4.68;;;16.90;1.00;;;;;;5042500;28;20041;-75
2023/07/02 04:23:57;;;;;;;11.45;4.60;;;16.90;1.00;;;;;;5046847;28;20457;-75
2023/07/02 04:26:26;;;;;;;9.63;3.97;;;17.00;1.00;;;;;;5041140;28;20041;-76
2023/07/02 04:28:54;;;;;;;9.15;4.80;;;17.00;1.00;;;;;;5025689;28;20041;-77
2023/07/02 04:31:21;;;;;;;7.15;4.25;;;17.10;1.00;;;;;;5042469;28;20029;-74
2023/07/02 04:33:47;;;;;;;8.98;4.13;;;17.20;1.00;;;;;;5044361;28;20049;-80
2023/07/02 04:36:14;;;;;;;10.95;3.58;;;17.30;1.00;;;;;;5045088;28;20045;-75
2023/07/02 04:38:40;;;;;;;9.80;4.45;;;17.40;1.00;;;;;;5044123;28;20051;-75
2023/07/02 04:41:06;;;;;;;7.40;4.40;;;17.60;1.00;;;;;;5043137;28;20033;-75
2023/07/02 04:43:33;;;;;;;8.85;4.43;;;18.20;99.90;;;;;;5045102;28;20040;-77
2023/07/02 04:45:59;;;;;;;11.23;4.53;;;18.70;99.90;;;;;;5045784;28;20119;-76
2023/07/02 04:48:25;;;;;;;11.43;4.38;;;18.90;99.90;;;;;;5044808;28;20060;-76
2023/07/02 04:50:51;;;;;;;7.95;4.15;;;19.00;99.90;;;;;;5046684;28;20029;-78
2023/07/02 04:53:17;;;;;;;8.82;4.68;;;19.20;99.90;;;;;;5046386;28;20036;-76
2023/07/02 04:55:44;;;;;;;9.38;5.15;;;19.30;99.90;;;;;;5046948;28;20037;-79
2023/07/02 04:58:10;;;;;;;7.90;4.45;;;19.10;99.90;;;;;;5042692;28;20036;-77
2023/07/02 05:00:36;;;;;;;7.40;4.57;;;19.40;99.90;;;;;;5043848;28;20048;-78
2023/07/02 05:03:02;;;;;;;10.00;4.63;;;19.50;99.90;;;;;;5033672;28;20041;-77
2023/07/02 05:05:29;;;;;;;10.82;4.50;;;19.30;99.90;;;;;;5055910;28;20036;-79
2023/07/02 05:07:55;;;;;;;12.73;4.90;;;19.10;99.90;;;;;;5047587;28;20038;-79
2023/07/02 05:10:21;;;;;;;11.40;5.07;;;18.90;99.90;;;;;;5050173;28;20040;-80
2023/07/02 05:12:47;;;;;;;13.38;5.30;;;18.20;99.90;;;;;;5035763;28;20063;-79
2023/07/02 05:15:13;;;;;;;8.55;5.05;;;18.20;99.90;;;;;;5062006;28;20037;-76
2023/07/02 05:17:40;;;;;;;9.43;5.60;;;18.30;99.90;;;;;;5045252;28;20053;-78
2023/07/02 05:20:07;;;;;;;8.63;5.03;;;18.10;99.90;;;;;;5047479;28;20048;-78
2023/07/02 05:22:33;;;;;;;9.23;5.45;;;18.40;99.90;;;;;;5029537;28;20049;-78
2023/07/02 05:24:59;;;;;;;10.32;5.88;;;18.50;99.90;;;;;;5067114;28;20036;-77
2023/07/02 05:27:25;;;;;;;8.38;5.68;;;18.10;99.90;;;;;;5048476;28;20040;-76
2023/07/02 05:29:53;;;;;;;11.13;6.47;;;18.20;99.90;;;;;;5050490;28;20033;-78
2023/07/02 05:32:19;;;;;;;10.02;5.60;;;18.30;99.90;;;;;;5068333;28;20038;-77
2023/07/02 05:34:45;;;;;;;12.63;5.97;;;18.40;99.90;;;;;;5067973;28;20391;-77
2023/07/02 05:37:12;;;;;;;13.23;5.97;;;18.30;99.90;;;;;;5044248;28;20106;-77
2023/07/02 05:39:38;;;;;;;11.60;5.57;;;18.20;99.90;;;;;;5050356;28;20053;-76
2023/07/02 05:42:04;;;;;;;16.58;6.57;;;18.10;99.90;;;;;;5048413;28;20040;-79
2023/07/02 05:44:30;;;;;;;10.23;5.97;;;18.10;99.90;;;;;;5050523;28;20375;-78
2023/07/02 05:46:56;;;;;;;12.63;5.82;;;17.90;99.90;;;;;;5045123;28;20424;-77
2023/07/02 05:49:22;;;;;;;12.88;6.22;;;18.10;99.90;;;;;;5050072;28;20072;-77
2023/07/02 05:51:49;;;;;;;13.05;6.20;;;18.30;99.90;;;;;;5049839;28;20175;-76
2023/07/02 05:54:17;;;;;;;12.50;6.95;;;18.60;99.90;;;;;;5050562;28;20036;-76
2023/07/02 05:56:43;;;;;;;11.65;6.53;;;18.60;99.90;;;;;;5029497;28;20049;-78
2023/07/02 05:59:10;;;;;;;11.52;6.43;;;18.50;99.90;;;;;;5027094;28;20057;-77
2023/07/02 06:01:37;;;;;;;9.05;5.15;;;18.60;99.90;;;;;;5049678;28;20056;-77
2023/07/02 06:04:03;;;;;;;13.70;6.55;;;18.70;99.90;;;;;;5032212;28;20132;-77
2023/07/02 06:06:29;;;;;;;11.10;6.72;;;18.60;99.90;;;;;;5044328;28;20048;-78
2023/07/02 06:08:55;;;;;;;13.65;6.55;;;18.40;99.90;;;;;;5048341;28;20041;-79
2023/07/02 06:11:21;;;;;;;20.38;6.93;;;18.50;99.90;;;;;;5048282;28;20487;-76
2023/07/02 06:13:47;;;;;;;12.85;6.28;;;18.60;99.90;;;;;;5034234;28;20037;-76
2023/07/02 06:16:14;;;;;;;10.93;5.57;;;18.80;99.90;;;;;;5062121;28;20029;-76
2023/07/02 06:18:41;;;;;;;9.60;5.97;;;19.20;99.90;;;;;;5049888;28;20035;-75
2023/07/02 06:21:07;;;;;;;12.80;7.20;;;19.80;99.90;;;;;;5048289;28;20483;-75
2023/07/02 06:23:41;;;;;;;14.13;6.93;;;20.10;99.90;;;;;;5049853;28;20051;-77
2023/07/02 06:26:07;;;;;;;11.18;7.22;;;20.40;99.90;;;;;;5046770;28;20132;-75
2023/07/02 06:28:33;;;;;;;12.48;6.70;;;20.30;99.90;;;;;;5048292;28;20152;-75
2023/07/02 06:30:59;;;;;;;13.45;6.63;;;20.70;99.90;;;;;;5050156;28;20029;-76
2023/07/02 06:33:26;;;;;;;11.10;7.35;;;21.40;99.90;;;;;;5048010;28;20040;-76
2023/07/02 06:35:52;;;;;;;13.25;7.75;;;21.40;99.90;;;;;;5050258;28;20037;-77
2023/07/02 06:38:18;;;;;;;10.60;7.10;;;21.40;99.90;;;;;;5047737;28;20033;-77
2023/07/02 06:40:44;;;;;;;12.95;7.30;;;21.60;99.90;;;;;;5049478;28;20045;-77
2023/07/02 06:43:10;;;;;;;11.27;7.32;;;21.20;99.90;;;;;;5047609;28;20033;-78
2023/07/02 06:45:36;;;;;;;14.20;7.90;;;21.10;99.90;;;;;;5065512;28;20045;-77
2023/07/02 06:48:02;;;;;;;13.18;8.30;;;21.00;99.90;;;;;;5063976;28;20024;-75
2023/07/02 06:50:28;;;;;;;12.07;7.50;;;21.30;99.90;;;;;;5050456;28;20060;-76
2023/07/02 06:52:55;;;;;;;14.30;7.53;;;21.40;99.90;;;;;;5046682;28;20041;-78
2023/07/02 06:55:21;;;;;;;12.65;7.15;;;21.70;99.90;;;;;;5048286;28;20032;-77
2023/07/02 06:57:47;;;;;;;13.30;8.55;;;21.80;99.90;;;;;;5036435;28;20026;-77
2023/07/02 07:00:14;;;;;;;12.80;8.70;;;21.20;99.90;;;;;;5032307;28;20044;-77
2023/07/02 07:02:41;;;;;;;11.88;7.35;;;21.50;99.90;;;;;;5036849;28;20044;-77
2023/07/02 07:05:08;;;;;;;11.65;7.78;;;21.60;99.90;;;;;;5047437;28;20056;-76
2023/07/02 07:07:34;;;;;;;12.93;7.88;;;21.60;99.90;;;;;;5028502;28;20040;-76
2023/07/02 07:10:01;;;;;;;10.38;7.47;;;21.50;99.90;;;;;;5032511;28;20078;-77
2023/07/02 07:12:27;;;;;;;13.73;8.20;;;21.60;99.90;;;;;;5047191;28;20029;-75
2023/07/02 07:14:53;;;;;;;12.20;7.63;;;22.20;99.90;;;;;;5031018;28;20048;-76
2023/07/02 07:17:19;;;;;;;12.18;7.75;;;22.20;99.90;;;;;;5044269;28;20036;-76
2023/07/02 07:19:46;;;;;;;11.80;6.97;;;21.90;99.90;;;;;;5042893;28;20056;-78
2023/07/02 07:22:12;;;;;;;11.52;7.03;;;22.20;99.90;;;;;;5060824;28;20029;-77
2023/07/02 07:24:40;;;;;;;10.70;7.20;;;22.30;99.90;;;;;;5060885;28;20037;-75
2023/07/02 07:27:06;;;;;;;11.52;7.30;;;22.50;99.90;;;;;;5047612;28;20040;-75
2023/07/02 07:29:32;;;;;;;15.38;8.88;;;22.50;99.90;;;;;;5048040;28;20037;-77
2023/07/02 07:31:58;;;;;;;16.63;8.05;;;22.30;99.90;;;;;;5046285;28;20408;-78
2023/07/02 07:34:24;;;;;;;13.30;7.70;;;22.20;99.90;;;;;;5062614;28;20388;-78
2023/07/02 07:36:50;;;;;;;11.55;7.60;;;21.80;99.90;;;;;;5043578;28;20051;-75
2023/07/02 07:39:16;;;;;;;12.13;8.00;;;20.80;99.90;;;;;;5046106;28;20051;-76
2023/07/02 07:41:48;;;;;;;12.63;8.02;;;20.10;99.90;;;;;;5061479;28;20037;-77
2023/07/02 07:44:14;;;;;;;17.38;9.77;;;20.10;99.90;;;;;;5047926;28;20040;-76
2023/07/02 07:46:40;;;;;;;15.50;8.30;;;20.20;99.90;;;;;;5026368;28;20030;-76
2023/07/02 07:49:06;;;;;;;16.55;8.30;;;20.50;99.90;;;;;;5046083;28;20044;-77
2023/07/02 07:51:34;;;;;;;13.02;7.70;;;20.40;99.90;;;;;;5047225;28;20033;-75
2023/07/02 07:54:00;;;;;;;13.23;8.43;;;20.90;99.90;;;;;;5032729;28;20025;-76
2023/07/02 07:56:26;;;;;;;14.88;8.65;;;21.30;99.90;;;;;;5043135;28;20040;-80
2023/07/02 07:58:52;;;;;;;15.38;9.23;;;21.70;99.90;;;;;;5035333;28;20110;-78
2023/07/02 08:01:18;;;;;;;18.58;8.85;;;22.10;99.90;;;;;;5026157;28;20030;-76
2023/07/02 08:03:44;;;;;;;13.05;9.48;;;22.30;99.90;;;;;;5028377;28;20384;-77
2023/07/02 08:06:10;;;;;;;16.17;11.00;;;22.50;99.90;;;;;;5024070;28;20030;-74
2023/07/02 08:08:37;;;;;;;17.02;9.68;;;22.40;99.90;;;;;;5025991;28;20025;-77
2023/07/02 08:11:03;;;;;;;14.98;9.75;;;22.70;99.90;;;;;;5027288;28;20384;-77
2023/07/02 08:13:29;;;;;;;17.23;11.02;;;22.60;99.90;;;;;;5021450;28;20036;-75
2023/07/02 08:15:55;;;;;;;13.82;8.80;;;22.70;99.90;;;;;;5023374;28;20032;-78
2023/07/02 08:18:21;;;;;;;14.60;10.18;;;22.70;99.90;;;;;;5023414;28;20026;-74
2023/07/02 08:20:48;;;;;;;16.52;9.60;;;23.00;99.90;;;;;;5026641;28;20389;-74
2023/07/02 08:23:14;;;;;;;17.30;9.98;;;23.10;99.90;;;;;;5027538;28;20038;-77
2023/07/02 08:25:40;;;;;;;16.60;10.75;;;23.30;99.90;;;;;;5019359;28;20421;-78
2023/07/02 08:28:06;;;;;;;12.88;10.00;;;23.20;99.90;;;;;;5025316;28;20029;-76
2023/07/02 08:30:32;;;;;;;17.17;10.40;;;23.10;97.80;;;;;;5040045;28;20381;-75
2023/07/02 08:32:58;;;;;;;15.88;10.25;;;23.00;99.90;;;;;;5022336;28;20038;-76
2023/07/02 08:35:24;;;;;;;16.88;9.77;;;22.50;99.90;;;;;;5020936;28;20026;-76
2023/07/02 08:37:51;;;;;;;17.27;10.98;;;22.30;99.90;;;;;;5024276;28;20053;-75
2023/07/02 08:40:18;;;;;;;21.60;10.98;;;23.00;99.90;;;;;;5046853;28;20857;-78
2023/07/02 08:42:48;;;;;;;13.95;10.30;;;22.80;99.90;;;;;;5030621;28;20034;-78
2023/07/02 08:45:17;;;;;;;16.30;9.68;;;22.60;99.90;;;;;;5028729;28;20037;-76
2023/07/02 08:47:45;;;;;;;14.23;9.67;;;23.70;99.90;;;;;;5027967;28;20469;-74
2023/07/02 08:50:14;;;;;;;16.55;10.48;;;23.90;97.50;;;;;;5028192;28;20296;-78
2023/07/02 08:52:40;;;;;;;17.00;9.80;;;23.30;99.90;;;;;;5028497;28;20464;-76
2023/07/02 08:55:07;;;;;;;14.57;9.05;;;23.00;99.90;;;;;;5028649;28;20045;-79
2023/07/02 08:57:35;;;;;;;18.08;9.30;;;22.60;99.90;;;;;;5011028;28;20373;-79
2023/07/02 09:00:08;;;;;;;16.40;9.07;;;22.80;99.90;;;;;;5043715;28;20045;-75
2023/07/02 09:02:34;;;;;;;14.05;9.50;;;22.80;99.90;;;;;;5048208;28;20396;-76
2023/07/02 09:05:04;;;;;;;16.27;10.45;;;22.60;99.90;;;;;;5048852;28;20038;-76
2023/07/02 09:07:30;;;;;;;15.25;10.35;;;22.70;99.90;;;;;;5046233;28;20037;-78
2023/07/02 09:09:56;;;;;;;15.82;10.38;;;23.50;97.80;;;;;;5032244;28;20052;-77
2023/07/02 09:12:31;;;;;;;18.52;10.63;;;23.00;98.40;;;;;;5046441;28;20025;-78
2023/07/02 09:15:05;;;;;;;21.23;11.77;;;23.00;99.90;;;;;;5050094;28;20068;-76
2023/07/02 09:17:38;;;;;;;17.48;10.57;;;22.60;99.90;;;;;;5049637;28;20132;-76
2023/07/02 09:20:08;;;;;;;15.93;10.82;;;23.30;99.90;;;;;;5048452;28;20040;-78
2023/07/02 09:22:38;;;;;;;11.32;8.32;;;23.90;97.90;;;;;;5044521;28;20033;-78
2023/07/02 09:25:05;;;;;;;13.73;9.65;;;23.60;76.10;;;;;;5052166;28;20036;-77
2023/07/02 09:27:40;;;;;;;14.45;9.90;;;23.00;95.10;;;;;;5048498;28;20356;-77
2023/07/02 09:30:13;;;;;;;17.40;10.55;;;22.50;99.90;;;;;;5049589;28;20044;-78
2023/07/02 09:32:40;;;;;;;15.35;10.52;;;22.30;99.90;;;;;;5065381;28;20029;-76
2023/07/02 09:35:06;;;;;;;15.13;10.57;;;22.80;99.90;;;;;;5050663;28;20056;-76
2023/07/02 09:37:33;;;;;;;14.45;9.23;;;23.30;94.50;;;;;;5044480;28;20033;-76
2023/07/02 09:40:01;;;;;;;17.45;11.25;;;23.40;91.40;;;;;;5050141;28;20033;-77
2023/07/02 09:42:29;;;;;;;17.67;10.55;;;22.30;99.90;;;;;;5046252;28;20040;-75
2023/07/02 09:44:58;;;;;;;19.45;12.07;;;22.10;99.90;;;;;;5032504;28;20033;-75
2023/07/02 09:47:25;;;;;;;15.25;10.55;;;22.20;99.90;;;;;;5063328;28;20494;-77
2023/07/02 09:49:57;;;;;;;14.77;10.35;;;23.00;94.50;;;;;;5048457;28;20036;-77
2023/07/02 09:52:26;;;;;;;17.25;10.23;;;23.30;85.50;;;;;;5047862;28;20033;-77
2023/07/02 09:54:52;;;;;;;14.68;10.57;;;22.80;72.80;;;;;;5029078;28;20029;-77
2023/07/02 09:57:18;;;;;;;16.25;10.52;;;23.00;77.30;;;;;;5047563;28;20040;-74
2023/07/02 09:59:45;;;;;;;14.88;10.30;;;23.20;81.90;;;;;;5050755;28;20488;-77
2023/07/02 10:02:12;;;;;;;14.73;10.20;;;22.60;89.40;;;;;;5045015;28;20108;-74
2023/07/02 10:04:44;;;;;;;19.85;11.02;;;22.30;95.30;;;;;;5049019;28;20029;-76
2023/07/02 10:07:10;;;;;;;20.02;11.27;;;22.10;98.60;;;;;;5046447;28;20048;-75
2023/07/02 10:09:39;;;;;;;16.40;11.45;;;22.50;90.10;;;;;;5043399;28;20068;-78
2023/07/02 10:12:17;;;;;;;16.77;11.23;;;22.70;90.00;;;;;;5049547;28;20037;-73
2023/07/02 10:14:44;;;;;;;19.98;12.80;;;22.70;95.00;;;;;;5049445;28;20028;-80
2023/07/02 10:17:10;;;;;;;15.65;11.13;;;22.20;98.40;;;;;;5048042;28;20033;-80
2023/07/02 10:19:37;;;;;;;19.23;12.95;;;21.90;93.50;;;;;;5024140;28;20057;-82
2023/07/02 10:22:04;;;;;;;15.52;11.02;;;22.80;94.80;;;;;;5047394;28;20036;-81
2023/07/02 10:24:30;;;;;;;17.15;10.73;;;23.10;67.00;;;;;;5044457;28;20036;-73
2023/07/02 10:26:59;;;;;;;17.15;11.73;;;22.50;83.90;;;;;;5044174;28;20050;-78
2023/07/02 10:29:26;;;;;;;20.50;13.48;;;22.40;94.40;;;;;;5038442;28;20033;-76
2023/07/02 10:31:54;;;;;;;19.90;12.73;;;22.70;94.60;;;;;;5047553;28;20056;-77
2023/07/02 10:34:34;;;;;;;21.20;12.40;;;23.00;72.50;;;;;;5044941;28;20033;-76
2023/07/02 10:37:02;;;;;;;19.88;12.32;;;22.40;69.80;;;;;;5042008;28;20037;-80
2023/07/02 10:39:30;;;;;;;22.30;12.77;;;22.70;68.00;;;;;;5047314;28;20048;-73
2023/07/02 10:42:06;;;;;;;21.42;12.32;;;22.80;62.30;;;;;;5049251;28;20033;-76
2023/07/02 10:44:35;;;;;;;19.83;13.43;;;22.40;64.40;;;;;;5029590;28;20037;-75
2023/07/02 10:47:03;;;;;;;19.42;13.38;;;22.80;77.80;;;;;;5048322;28;20471;-82
2023/07/02 10:49:32;;;;;;;22.92;14.48;;;23.00;67.30;;;;;;5031916;28;20036;-77
2023/07/02 10:51:59;;;;;;;22.83;12.60;;;23.10;73.10;;;;;;5029959;28;20037;-79
2023/07/02 10:54:26;;;;;;;18.70;12.60;;;23.30;67.10;;;;;;5048207;28;20044;-77
2023/07/02 10:56:58;;;;;;;19.45;12.50;;;23.80;43.40;;;;;;5027209;28;20400;-80
2023/07/02 10:59:25;;;;;;;18.42;12.05;;;23.50;36.50;;;;;;5046854;28;20053;-79
2023/07/02 11:01:52;;;;;;;16.40;12.13;;;22.90;49.80;;;;;;5043699;28;20049;-77
2023/07/02 11:04:19;;;;;;;18.20;12.85;;;23.20;45.40;;;;;;5032880;28;20033;-79
2023/07/02 11:06:47;;;;;;;22.35;11.63;;;23.00;46.50;;;;;;5047509;28;20542;-80
2023/07/02 11:09:17;;;;;;;16.50;12.48;;;23.20;35.60;;;;;;5024560;28;20061;-79
2023/07/02 11:12:00;;;;;;;19.98;12.80;;;23.50;27.90;;;;;;5028271;28;20544;-78
2023/07/02 11:14:34;;;;;;;25.13;13.95;;;22.70;38.90;;;;;;5027492;28;20037;-79
2023/07/02 11:17:05;;;;;;;27.10;13.82;;;22.90;56.80;;;;;;5058477;28;20029;-75
2023/07/02 11:19:36;;;;;;;24.70;12.57;;;22.90;57.00;;;;;;5021298;28;20041;-76
2023/07/02 11:22:04;;;;;;;19.75;12.77;;;23.20;46.60;;;;;;5046941;28;20812;-78
2023/07/02 11:24:35;;;;;;;19.08;12.25;;;24.10;38.40;;;;;;5010706;28;20045;-77
2023/07/02 11:27:03;;;;;;;21.77;12.93;;;24.50;23.00;;;;;;5013335;28;20052;-77
2023/07/02 11:29:30;;;;;;;17.65;10.82;;;24.40;9.70;;;;;;5046703;28;20037;-77
2023/07/02 11:32:08;;;;;;;19.70;12.27;;;24.10;9.00;;;;;;5047605;28;20032;-75
2023/07/02 11:34:36;;;;;;;18.73;12.60;;;23.90;8.80;;;;;;5028477;28;20041;-76
2023/07/02 11:37:04;;;;;;;20.30;11.65;;;24.00;15.10;;;;;;5030583;28;20133;-76
2023/07/02 11:39:31;;;;;;;19.75;11.93;;;23.80;20.40;;;;;;5044225;28;20041;-79
2023/07/02 11:41:57;;;;;;;19.13;12.65;;;23.50;31.50;;;;;;5047275;28;20413;-78
2023/07/02 11:44:25;;;;;;;19.27;11.88;;;23.40;40.30;;;;;;5024856;28;20044;-78
2023/07/02 11:46:52;;;;;;;20.98;11.30;;;23.70;30.00;;;;;;5029985;28;20045;-79
2023/07/02 11:49:19;;;;;;;17.50;12.65;;;24.00;22.20;;;;;;5030704;28;20041;-80
2023/07/02 11:51:48;;;;;;;16.52;12.23;;;24.40;18.40;;;;;;5025392;28;20049;-79
2023/07/02 11:54:18;;;;;;;16.27;11.32;;;24.00;11.70;;;;;;5031384;28;20040;-81
2023/07/02 11:56:45;;;;;;;21.30;11.50;;;23.60;19.10;;;;;;4986814;28;20077;-80
2023/07/02 11:59:11;;;;;;;15.05;10.75;;;23.90;19.60;;;;;;4967228;28;20058;-77
2023/07/02 12:01:37;;;;;;;18.02;10.90;;;24.20;8.70;;;;;;4978926;28;20073;-80
2023/07/02 12:04:05;;;;;;;18.95;11.23;;;24.10;5.30;;;;;;4987955;28;20051;-75
2023/07/02 12:06:31;;;;;;;19.90;12.65;;;23.90;6.20;;;;;;4987569;28;20062;-81
2023/07/02 12:08:57;;;;;;;18.77;12.18;;;23.80;10.90;;;;;;4985265;28;20042;-78
2023/07/02 12:11:24;;;;;;;16.85;10.45;;;23.70;15.70;;;;;;4985748;28;20062;-78
2023/07/02 12:13:50;;;;;;;19.33;12.48;;;23.80;15.80;;;;;;4987316;28;20023;-78
2023/07/02 12:16:16;;;;;;;18.92;12.07;;;23.40;17.70;;;;;;4987646;28;20046;-78
2023/07/02 12:18:42;;;;;;;16.52;11.52;;;23.40;21.80;;;;;;4973353;28;20042;-77
2023/07/02 12:21:09;;;;;;;16.23;11.73;;;23.70;26.10;;;;;;4987467;28;20046;-78
2023/07/02 12:23:35;;;;;;;19.92;13.05;;;23.30;24.60;;;;;;4988087;28;20046;-74
2023/07/02 12:26:01;;;;;;;21.15;11.70;;;23.60;26.10;;;;;;4971155;28;20082;-78
2023/07/02 12:28:27;;;;;;;16.10;11.30;;;23.90;18.40;;;;;;5027235;28;20556;-77
2023/07/02 12:30:55;;;;;;;16.95;10.85;;;23.90;13.60;;;;;;5024867;28;20037;-77
2023/07/02 12:33:21;;;;;;;16.20;10.38;;;23.90;6.60;;;;;;5053166;28;20029;-78
2023/07/02 12:35:47;;;;;;;18.35;10.98;;;23.80;14.70;;;;;;5043809;28;20037;-77
2023/07/02 12:38:14;;;;;;;19.30;12.13;;;24.30;12.10;;;;;;5042932;28;20177;-75
2023/07/02 12:40:40;;;;;;;19.58;12.43;;;24.80;1.00;;;;;;5038919;28;20476;-76